sensor_id;sensor_type;location;lat;lon;timestamp;P1;durP1;ratioP1;P2;durP2;ratioP2
14470;SDS011;7321;50.802;4.336;2023-07-24T00:01:19;10.93;;;6.78;;
14470;SDS011;7321;50.802;4.336;2023-07-24T00:03:45;9.77;;;7.43;;
14470;SDS011;7321;50.802;4.336;2023-07-24T00:06:11;9.82;;;6.90;;
14470;SDS011;7321;50.802;4.336;2023-07-24T00:08:37;9.98;;;6.57;;
14470;SDS011;7321;50.802;4.336;2023-07-24T00:11:06;10.20;;;6.90;;
14470;SDS011;7321;50.802;4.336;2023-07-24T00:13:33;9.20;;;6.82;;
14470;SDS011;7321;50.802;4.336;2023-07-24T00:15:58;11.30;;;7.13;;
14470;SDS011;7321;50.802;4.336;2023-07-24T00:18:24;7.85;;;6.80;;
14470;SDS011;7321;50.802;4.336;2023-07-24T00:20:50;8.23;;;6.63;;
14470;SDS011;7321;50.802;4.336;2023-07-24T00:23:16;10.48;;;7.07;;
14470;SDS011;7321;50.802;4.336;2023-07-24T00:25:42;9.25;;;6.28;;
14470;SDS011;7321;50.802;4.336;2023-07-24T00:28:08;9.80;;;6.70;;
14470;SDS011;7321;50.802;4.336;2023-07-24T00:30:34;11.23;;;6.88;;
14470;SDS011;7321;50.802;4.336;2023-07-24T00:32:59;10.52;;;7.38;;
14470;SDS011;7321;50.802;4.336;2023-07-24T00:35:25;7.25;;;6.18;;
14470;SDS011;7321;50.802;4.336;2023-07-24T00:37:52;9.80;;;5.90;;
14470;SDS011;7321;50.802;4.336;2023-07-24T00:40:17;8.70;;;6.30;;
14470;SDS011;7321;50.802;4.336;2023-07-24T00:42:47;8.43;;;6.50;;
14470;SDS011;7321;50.802;4.336;2023-07-24T00:45:13;8.40;;;6.47;;
14470;SDS011;7321;50.802;4.336;2023-07-24T00:47:40;9.90;;;6.22;;
14470;SDS011;7321;50.802;4.336;2023-07-24T00:50:07;9.18;;;6.30;;
14470;SDS011;7321;50.802;4.336;2023-07-24T00:52:34;10.75;;;6.60;;
14470;SDS011;7321;50.802;4.336;2023-07-24T00:55:00;12.57;;;6.75;;
14470;SDS011;7321;50.802;4.336;2023-07-24T00:57:26;9.43;;;5.57;;
14470;SDS011;7321;50.802;4.336;2023-07-24T00:59:52;10.77;;;6.20;;
14470;SDS011;7321;50.802;4.336;2023-07-24T01:02:19;9.25;;;5.97;;
14470;SDS011;7321;50.802;4.336;2023-07-24T01:04:45;6.60;;;5.78;;
14470;SDS011;7321;50.802;4.336;2023-07-24T01:07:12;8.50;;;5.63;;
14470;SDS011;7321;50.802;4.336;2023-07-24T01:09:38;7.93;;;5.85;;
14470;SDS011;7321;50.802;4.336;2023-07-24T01:12:13;8.18;;;5.88;;
14470;SDS011;7321;50.802;4.336;2023-07-24T01:14:52;9.02;;;6.57;;
14470;SDS011;7321;50.802;4.336;2023-07-24T01:17:27;11.98;;;6.45;;
14470;SDS011;7321;50.802;4.336;2023-07-24T01:19:57;11.77;;;7.07;;
14470;SDS011;7321;50.802;4.336;2023-07-24T01:25:23;6.97;;;6.28;;
14470;SDS011;7321;50.802;4.336;2023-07-24T01:27:56;8.05;;;6.28;;
14470;SDS011;7321;50.802;4.336;2023-07-24T01:30:22;8.77;;;5.97;;
14470;SDS011;7321;50.802;4.336;2023-07-24T01:32:48;7.25;;;5.88;;
14470;SDS011;7321;50.802;4.336;2023-07-24T01:35:14;9.65;;;6.32;;
14470;SDS011;7321;50.802;4.336;2023-07-24T01:37:40;9.23;;;6.78;;
14470;SDS011;7321;50.802;4.336;2023-07-24T01:40:08;8.48;;;6.43;;
14470;SDS011;7321;50.802;4.336;2023-07-24T01:42:35;8.35;;;6.60;;
14470;SDS011;7321;50.802;4.336;2023-07-24T01:45:02;8.13;;;6.15;;
14470;SDS011;7321;50.802;4.336;2023-07-24T01:47:29;9.27;;;6.45;;
14470;SDS011;7321;50.802;4.336;2023-07-24T01:49:55;8.77;;;6.32;;
14470;SDS011;7321;50.802;4.336;2023-07-24T01:52:21;9.27;;;6.90;;
14470;SDS011;7321;50.802;4.336;2023-07-24T01:54:47;9.55;;;6.43;;
14470;SDS011;7321;50.802;4.336;2023-07-24T01:57:13;10.68;;;6.22;;
14470;SDS011;7321;50.802;4.336;2023-07-24T01:59:39;5.50;;;4.93;;
14470;SDS011;7321;50.802;4.336;2023-07-24T02:02:05;6.95;;;5.07;;
14470;SDS011;7321;50.802;4.336;2023-07-24T02:04:31;6.20;;;5.30;;
14470;SDS011;7321;50.802;4.336;2023-07-24T02:06:56;7.32;;;5.70;;
14470;SDS011;7321;50.802;4.336;2023-07-24T02:09:22;6.30;;;5.50;;
14470;SDS011;7321;50.802;4.336;2023-07-24T02:11:48;7.85;;;5.40;;
14470;SDS011;7321;50.802;4.336;2023-07-24T02:14:14;6.53;;;5.53;;
14470;SDS011;7321;50.802;4.336;2023-07-24T02:16:42;6.63;;;5.07;;
14470;SDS011;7321;50.802;4.336;2023-07-24T02:19:07;6.40;;;5.00;;
14470;SDS011;7321;50.802;4.336;2023-07-24T02:21:33;5.88;;;4.82;;
14470;SDS011;7321;50.802;4.336;2023-07-24T02:23:59;7.13;;;4.72;;
14470;SDS011;7321;50.802;4.336;2023-07-24T02:26:25;5.20;;;4.47;;
14470;SDS011;7321;50.802;4.336;2023-07-24T02:28:50;7.97;;;4.95;;
14470;SDS011;7321;50.802;4.336;2023-07-24T02:31:16;6.13;;;4.28;;
14470;SDS011;7321;50.802;4.336;2023-07-24T02:33:42;6.00;;;4.30;;
14470;SDS011;7321;50.802;4.336;2023-07-24T02:36:08;6.15;;;4.78;;
14470;SDS011;7321;50.802;4.336;2023-07-24T02:38:34;5.28;;;4.60;;
14470;SDS011;7321;50.802;4.336;2023-07-24T02:41:00;5.38;;;4.40;;
14470;SDS011;7321;50.802;4.336;2023-07-24T02:43:26;5.20;;;4.30;;
14470;SDS011;7321;50.802;4.336;2023-07-24T02:45:51;4.32;;;3.90;;
14470;SDS011;7321;50.802;4.336;2023-07-24T02:48:17;4.78;;;3.95;;
14470;SDS011;7321;50.802;4.336;2023-07-24T02:50:43;5.55;;;3.45;;
14470;SDS011;7321;50.802;4.336;2023-07-24T02:53:09;5.55;;;3.75;;
14470;SDS011;7321;50.802;4.336;2023-07-24T02:55:35;4.53;;;3.30;;
14470;SDS011;7321;50.802;4.336;2023-07-24T02:58:01;5.90;;;3.45;;
14470;SDS011;7321;50.802;4.336;2023-07-24T03:00:27;4.65;;;3.83;;
14470;SDS011;7321;50.802;4.336;2023-07-24T03:02:53;4.88;;;4.03;;
14470;SDS011;7321;50.802;4.336;2023-07-24T03:05:19;4.53;;;3.75;;
14470;SDS011;7321;50.802;4.336;2023-07-24T03:07:45;3.70;;;3.20;;
14470;SDS011;7321;50.802;4.336;2023-07-24T03:10:11;4.75;;;3.50;;
14470;SDS011;7321;50.802;4.336;2023-07-24T03:12:36;3.35;;;2.85;;
14470;SDS011;7321;50.802;4.336;2023-07-24T03:15:02;3.00;;;2.80;;
14470;SDS011;7321;50.802;4.336;2023-07-24T03:17:28;3.67;;;3.38;;
14470;SDS011;7321;50.802;4.336;2023-07-24T03:19:54;2.97;;;2.65;;
14470;SDS011;7321;50.802;4.336;2023-07-24T03:22:20;2.28;;;2.10;;
14470;SDS011;7321;50.802;4.336;2023-07-24T03:24:46;2.45;;;2.25;;
14470;SDS011;7321;50.802;4.336;2023-07-24T03:27:12;4.53;;;2.30;;
14470;SDS011;7321;50.802;4.336;2023-07-24T03:29:38;2.97;;;2.35;;
14470;SDS011;7321;50.802;4.336;2023-07-24T03:32:06;2.42;;;2.22;;
14470;SDS011;7321;50.802;4.336;2023-07-24T03:34:32;2.40;;;2.20;;
14470;SDS011;7321;50.802;4.336;2023-07-24T03:36:58;2.97;;;2.40;;
14470;SDS011;7321;50.802;4.336;2023-07-24T03:39:23;2.40;;;2.15;;
14470;SDS011;7321;50.802;4.336;2023-07-24T03:41:49;3.00;;;2.08;;
14470;SDS011;7321;50.802;4.336;2023-07-24T03:44:15;2.10;;;1.95;;
14470;SDS011;7321;50.802;4.336;2023-07-24T03:46:41;2.72;;;2.45;;
14470;SDS011;7321;50.802;4.336;2023-07-24T03:49:07;2.90;;;2.25;;
14470;SDS011;7321;50.802;4.336;2023-07-24T03:51:32;2.42;;;2.22;;
14470;SDS011;7321;50.802;4.336;2023-07-24T03:53:58;3.35;;;2.58;;
14470;SDS011;7321;50.802;4.336;2023-07-24T03:56:24;2.70;;;2.50;;
14470;SDS011;7321;50.802;4.336;2023-07-24T03:58:50;2.22;;;2.03;;
14470;SDS011;7321;50.802;4.336;2023-07-24T04:01:15;2.17;;;1.98;;
14470;SDS011;7321;50.802;4.336;2023-07-24T04:03:41;2.58;;;2.20;;
14470;SDS011;7321;50.802;4.336;2023-07-24T04:06:07;2.85;;;2.38;;
14470;SDS011;7321;50.802;4.336;2023-07-24T04:08:33;2.10;;;2.00;;
14470;SDS011;7321;50.802;4.336;2023-07-24T04:10:59;1.90;;;1.80;;
14470;SDS011;7321;50.802;4.336;2023-07-24T04:13:24;2.65;;;2.40;;
14470;SDS011;7321;50.802;4.336;2023-07-24T04:15:50;2.25;;;1.77;;
14470;SDS011;7321;50.802;4.336;2023-07-24T04:18:16;2.33;;;2.00;;
14470;SDS011;7321;50.802;4.336;2023-07-24T04:20:42;2.35;;;2.15;;
14470;SDS011;7321;50.802;4.336;2023-07-24T04:23:08;3.22;;;1.70;;
14470;SDS011;7321;50.802;4.336;2023-07-24T04:25:33;3.53;;;2.15;;
14470;SDS011;7321;50.802;4.336;2023-07-24T04:27:59;2.42;;;2.22;;
14470;SDS011;7321;50.802;4.336;2023-07-24T04:30:25;2.08;;;1.98;;
14470;SDS011;7321;50.802;4.336;2023-07-24T04:32:51;2.35;;;2.13;;
14470;SDS011;7321;50.802;4.336;2023-07-24T04:35:16;2.58;;;2.05;;
14470;SDS011;7321;50.802;4.336;2023-07-24T04:37:42;2.72;;;2.20;;
14470;SDS011;7321;50.802;4.336;2023-07-24T04:40:08;3.58;;;2.17;;
14470;SDS011;7321;50.802;4.336;2023-07-24T04:42:34;1.95;;;1.73;;
14470;SDS011;7321;50.802;4.336;2023-07-24T04:45:00;2.10;;;2.00;;
14470;SDS011;7321;50.802;4.336;2023-07-24T04:47:26;2.42;;;2.10;;
14470;SDS011;7321;50.802;4.336;2023-07-24T04:49:51;2.17;;;1.98;;
14470;SDS011;7321;50.802;4.336;2023-07-24T04:52:17;3.92;;;2.13;;
14470;SDS011;7321;50.802;4.336;2023-07-24T04:54:43;2.45;;;2.15;;
14470;SDS011;7321;50.802;4.336;2023-07-24T04:57:09;2.33;;;2.10;;
14470;SDS011;7321;50.802;4.336;2023-07-24T04:59:35;2.53;;;2.33;;
14470;SDS011;7321;50.802;4.336;2023-07-24T05:02:00;4.35;;;2.25;;
14470;SDS011;7321;50.802;4.336;2023-07-24T05:04:26;3.22;;;2.30;;
14470;SDS011;7321;50.802;4.336;2023-07-24T05:06:52;2.33;;;2.13;;
14470;SDS011;7321;50.802;4.336;2023-07-24T05:09:18;2.40;;;2.20;;
14470;SDS011;7321;50.802;4.336;2023-07-24T05:11:43;2.60;;;2.38;;
14470;SDS011;7321;50.802;4.336;2023-07-24T05:14:10;2.40;;;2.20;;
14470;SDS011;7321;50.802;4.336;2023-07-24T05:16:36;2.88;;;2.30;;
14470;SDS011;7321;50.802;4.336;2023-07-24T05:19:02;4.47;;;2.40;;
14470;SDS011;7321;50.802;4.336;2023-07-24T05:21:28;2.85;;;2.60;;
14470;SDS011;7321;50.802;4.336;2023-07-24T05:23:54;2.67;;;2.47;;
14470;SDS011;7321;50.802;4.336;2023-07-24T05:26:20;2.60;;;2.40;;
14470;SDS011;7321;50.802;4.336;2023-07-24T05:28:48;4.50;;;3.05;;
14470;SDS011;7321;50.802;4.336;2023-07-24T05:31:14;2.40;;;2.20;;
14470;SDS011;7321;50.802;4.336;2023-07-24T05:33:40;2.13;;;1.90;;
14470;SDS011;7321;50.802;4.336;2023-07-24T05:36:06;2.53;;;2.22;;
14470;SDS011;7321;50.802;4.336;2023-07-24T05:38:31;2.75;;;2.45;;
14470;SDS011;7321;50.802;4.336;2023-07-24T05:40:58;2.85;;;2.60;;
14470;SDS011;7321;50.802;4.336;2023-07-24T05:43:25;3.22;;;2.58;;
14470;SDS011;7321;50.802;4.336;2023-07-24T05:45:52;2.15;;;2.03;;
14470;SDS011;7321;50.802;4.336;2023-07-24T05:48:18;3.25;;;2.35;;
14470;SDS011;7321;50.802;4.336;2023-07-24T05:50:44;3.08;;;2.72;;
14470;SDS011;7321;50.802;4.336;2023-07-24T05:53:10;2.65;;;2.35;;
14470;SDS011;7321;50.802;4.336;2023-07-24T05:55:36;2.92;;;2.60;;
14470;SDS011;7321;50.802;4.336;2023-07-24T05:58:02;3.33;;;2.75;;
14470;SDS011;7321;50.802;4.336;2023-07-24T06:00:27;2.78;;;2.38;;
14470;SDS011;7321;50.802;4.336;2023-07-24T06:02:53;2.67;;;2.47;;
14470;SDS011;7321;50.802;4.336;2023-07-24T06:05:22;3.53;;;2.80;;
14470;SDS011;7321;50.802;4.336;2023-07-24T06:07:51;2.45;;;2.25;;
14470;SDS011;7321;50.802;4.336;2023-07-24T06:10:17;2.83;;;2.63;;
14470;SDS011;7321;50.802;4.336;2023-07-24T06:12:50;2.90;;;2.60;;
14470;SDS011;7321;50.802;4.336;2023-07-24T06:15:16;4.57;;;2.67;;
14470;SDS011;7321;50.802;4.336;2023-07-24T06:17:42;4.85;;;3.47;;
14470;SDS011;7321;50.802;4.336;2023-07-24T06:20:08;2.80;;;2.60;;
14470;SDS011;7321;50.802;4.336;2023-07-24T06:22:34;3.65;;;3.10;;
14470;SDS011;7321;50.802;4.336;2023-07-24T06:25:00;3.22;;;2.72;;
14470;SDS011;7321;50.802;4.336;2023-07-24T06:27:26;2.80;;;2.50;;
14470;SDS011;7321;50.802;4.336;2023-07-24T06:29:51;3.92;;;2.35;;
14470;SDS011;7321;50.802;4.336;2023-07-24T06:32:17;3.00;;;2.70;;
14470;SDS011;7321;50.802;4.336;2023-07-24T06:34:43;4.72;;;2.90;;
14470;SDS011;7321;50.802;4.336;2023-07-24T06:37:09;3.33;;;2.55;;
14470;SDS011;7321;50.802;4.336;2023-07-24T06:39:35;3.30;;;3.00;;
14470;SDS011;7321;50.802;4.336;2023-07-24T06:42:01;4.97;;;2.97;;
14470;SDS011;7321;50.802;4.336;2023-07-24T06:44:27;4.05;;;2.85;;
14470;SDS011;7321;50.802;4.336;2023-07-24T06:46:53;3.00;;;2.67;;
14470;SDS011;7321;50.802;4.336;2023-07-24T06:49:19;3.75;;;2.58;;
14470;SDS011;7321;50.802;4.336;2023-07-24T06:51:45;3.35;;;2.28;;
14470;SDS011;7321;50.802;4.336;2023-07-24T06:54:11;3.05;;;2.60;;
14470;SDS011;7321;50.802;4.336;2023-07-24T06:56:37;3.45;;;2.30;;
14470;SDS011;7321;50.802;4.336;2023-07-24T06:59:03;4.32;;;2.60;;
14470;SDS011;7321;50.802;4.336;2023-07-24T07:01:29;2.67;;;2.33;;
14470;SDS011;7321;50.802;4.336;2023-07-24T07:03:55;3.95;;;2.95;;
14470;SDS011;7321;50.802;4.336;2023-07-24T07:06:20;3.55;;;2.47;;
14470;SDS011;7321;50.802;4.336;2023-07-24T07:08:47;3.72;;;2.50;;
14470;SDS011;7321;50.802;4.336;2023-07-24T07:11:15;4.20;;;2.55;;
14470;SDS011;7321;50.802;4.336;2023-07-24T07:13:41;4.72;;;2.80;;
14470;SDS011;7321;50.802;4.336;2023-07-24T07:16:07;4.60;;;2.53;;
14470;SDS011;7321;50.802;4.336;2023-07-24T07:18:33;3.33;;;2.92;;
14470;SDS011;7321;50.802;4.336;2023-07-24T07:20:59;4.70;;;2.80;;
14470;SDS011;7321;50.802;4.336;2023-07-24T07:23:24;4.10;;;2.65;;
14470;SDS011;7321;50.802;4.336;2023-07-24T07:25:51;3.35;;;2.60;;
14470;SDS011;7321;50.802;4.336;2023-07-24T07:28:17;3.72;;;2.28;;
14470;SDS011;7321;50.802;4.336;2023-07-24T07:30:44;3.80;;;2.42;;
14470;SDS011;7321;50.802;4.336;2023-07-24T07:33:09;3.17;;;2.80;;
14470;SDS011;7321;50.802;4.336;2023-07-24T07:35:35;2.45;;;2.20;;
14470;SDS011;7321;50.802;4.336;2023-07-24T07:38:02;3.13;;;2.78;;
14470;SDS011;7321;50.802;4.336;2023-07-24T07:40:28;3.53;;;2.38;;
14470;SDS011;7321;50.802;4.336;2023-07-24T07:42:55;3.03;;;2.70;;
14470;SDS011;7321;50.802;4.336;2023-07-24T07:45:22;2.63;;;2.40;;
14470;SDS011;7321;50.802;4.336;2023-07-24T07:47:51;5.50;;;2.38;;
14470;SDS011;7321;50.802;4.336;2023-07-24T07:50:18;2.90;;;2.25;;
14470;SDS011;7321;50.802;4.336;2023-07-24T07:52:44;2.67;;;2.35;;
14470;SDS011;7321;50.802;4.336;2023-07-24T07:55:10;3.05;;;2.00;;
14470;SDS011;7321;50.802;4.336;2023-07-24T07:57:36;2.83;;;2.38;;
14470;SDS011;7321;50.802;4.336;2023-07-24T08:00:05;3.63;;;2.20;;
14470;SDS011;7321;50.802;4.336;2023-07-24T08:02:32;2.38;;;1.98;;
14470;SDS011;7321;50.802;4.336;2023-07-24T08:05:09;2.38;;;2.17;;
14470;SDS011;7321;50.802;4.336;2023-07-24T08:07:36;3.58;;;2.50;;
14470;SDS011;7321;50.802;4.336;2023-07-24T08:10:02;4.75;;;2.50;;
14470;SDS011;7321;50.802;4.336;2023-07-24T08:12:29;2.70;;;2.35;;
14470;SDS011;7321;50.802;4.336;2023-07-24T08:14:58;3.10;;;2.50;;
14470;SDS011;7321;50.802;4.336;2023-07-24T08:17:27;4.30;;;2.40;;
14470;SDS011;7321;50.802;4.336;2023-07-24T08:19:53;2.38;;;2.17;;
14470;SDS011;7321;50.802;4.336;2023-07-24T08:22:18;2.13;;;1.92;;
14470;SDS011;7321;50.802;4.336;2023-07-24T08:24:45;2.55;;;2.33;;
14470;SDS011;7321;50.802;4.336;2023-07-24T08:27:12;2.90;;;2.70;;
14470;SDS011;7321;50.802;4.336;2023-07-24T08:29:40;4.70;;;2.78;;
14470;SDS011;7321;50.802;4.336;2023-07-24T08:32:06;2.40;;;2.20;;
14470;SDS011;7321;50.802;4.336;2023-07-24T08:34:32;5.05;;;2.92;;
14470;SDS011;7321;50.802;4.336;2023-07-24T08:36:58;3.92;;;3.10;;
14470;SDS011;7321;50.802;4.336;2023-07-24T08:39:24;3.47;;;2.92;;
14470;SDS011;7321;50.802;4.336;2023-07-24T08:41:58;3.78;;;2.90;;
14470;SDS011;7321;50.802;4.336;2023-07-24T08:44:24;3.40;;;3.10;;
14470;SDS011;7321;50.802;4.336;2023-07-24T08:46:54;4.57;;;3.10;;
14470;SDS011;7321;50.802;4.336;2023-07-24T08:49:22;6.13;;;3.67;;
14470;SDS011;7321;50.802;4.336;2023-07-24T08:51:59;3.53;;;3.20;;
14470;SDS011;7321;50.802;4.336;2023-07-24T08:54:29;3.88;;;3.08;;
14470;SDS011;7321;50.802;4.336;2023-07-24T08:56:56;3.20;;;2.90;;
14470;SDS011;7321;50.802;4.336;2023-07-24T08:59:27;4.13;;;3.25;;
14470;SDS011;7321;50.802;4.336;2023-07-24T09:01:57;4.18;;;2.75;;
14470;SDS011;7321;50.802;4.336;2023-07-24T09:04:24;2.88;;;2.63;;
14470;SDS011;7321;50.802;4.336;2023-07-24T09:06:50;4.60;;;3.20;;
14470;SDS011;7321;50.802;4.336;2023-07-24T09:09:16;3.30;;;3.00;;
14470;SDS011;7321;50.802;4.336;2023-07-24T09:12:01;4.15;;;2.97;;
14470;SDS011;7321;50.802;4.336;2023-07-24T09:14:27;4.40;;;3.10;;
14470;SDS011;7321;50.802;4.336;2023-07-24T09:17:07;3.75;;;2.97;;
14470;SDS011;7321;50.802;4.336;2023-07-24T09:19:34;4.85;;;3.25;;
14470;SDS011;7321;50.802;4.336;2023-07-24T09:24:53;3.53;;;3.20;;
14470;SDS011;7321;50.802;4.336;2023-07-24T09:27:29;6.70;;;4.13;;
14470;SDS011;7321;50.802;4.336;2023-07-24T09:29:55;5.82;;;4.13;;
14470;SDS011;7321;50.802;4.336;2023-07-24T09:32:22;3.78;;;3.45;;
14470;SDS011;7321;50.802;4.336;2023-07-24T09:34:50;3.78;;;3.47;;
14470;SDS011;7321;50.802;4.336;2023-07-24T09:37:23;4.85;;;3.92;;
14470;SDS011;7321;50.802;4.336;2023-07-24T09:39:49;5.07;;;3.90;;
14470;SDS011;7321;50.802;4.336;2023-07-24T09:42:15;4.03;;;3.63;;
14470;SDS011;7321;50.802;4.336;2023-07-24T09:44:41;3.88;;;3.45;;
14470;SDS011;7321;50.802;4.336;2023-07-24T09:47:10;4.47;;;3.97;;
14470;SDS011;7321;50.802;4.336;2023-07-24T09:49:38;4.35;;;3.95;;
14470;SDS011;7321;50.802;4.336;2023-07-24T09:52:05;4.10;;;3.70;;
14470;SDS011;7321;50.802;4.336;2023-07-24T09:54:37;5.32;;;4.68;;
14470;SDS011;7321;50.802;4.336;2023-07-24T09:57:26;4.35;;;3.95;;
14470;SDS011;7321;50.802;4.336;2023-07-24T09:59:54;3.90;;;3.47;;
14470;SDS011;7321;50.802;4.336;2023-07-24T10:02:22;6.45;;;5.25;;
14470;SDS011;7321;50.802;4.336;2023-07-24T10:05:09;5.35;;;4.03;;
14470;SDS011;7321;50.802;4.336;2023-07-24T10:07:38;3.70;;;3.40;;
14470;SDS011;7321;50.802;4.336;2023-07-24T10:10:07;3.80;;;3.38;;
14470;SDS011;7321;50.802;4.336;2023-07-24T10:12:34;3.30;;;2.90;;
14470;SDS011;7321;50.802;4.336;2023-07-24T10:15:01;3.28;;;2.97;;
14470;SDS011;7321;50.802;4.336;2023-07-24T10:17:37;3.33;;;3.03;;
14470;SDS011;7321;50.802;4.336;2023-07-24T10:20:05;3.45;;;3.10;;
14470;SDS011;7321;50.802;4.336;2023-07-24T10:22:44;3.45;;;2.90;;
14470;SDS011;7321;50.802;4.336;2023-07-24T10:25:10;3.15;;;2.88;;
14470;SDS011;7321;50.802;4.336;2023-07-24T10:27:42;2.92;;;2.42;;
14470;SDS011;7321;50.802;4.336;2023-07-24T10:30:12;4.82;;;4.38;;
14470;SDS011;7321;50.802;4.336;2023-07-24T10:32:48;3.25;;;2.95;;
14470;SDS011;7321;50.802;4.336;2023-07-24T10:35:15;5.38;;;4.05;;
14470;SDS011;7321;50.802;4.336;2023-07-24T10:37:46;3.30;;;3.00;;
14470;SDS011;7321;50.802;4.336;2023-07-24T10:40:26;2.97;;;2.72;;
14470;SDS011;7321;50.802;4.336;2023-07-24T10:45:57;3.20;;;2.90;;
14470;SDS011;7321;50.802;4.336;2023-07-24T10:48:24;4.60;;;3.75;;
14470;SDS011;7321;50.802;4.336;2023-07-24T10:50:54;3.72;;;3.00;;
14470;SDS011;7321;50.802;4.336;2023-07-24T10:53:20;3.33;;;3.03;;
14470;SDS011;7321;50.802;4.336;2023-07-24T10:55:51;3.20;;;2.90;;
14470;SDS011;7321;50.802;4.336;2023-07-24T10:58:18;3.00;;;2.70;;
14470;SDS011;7321;50.802;4.336;2023-07-24T11:00:53;4.90;;;3.33;;
14470;SDS011;7321;50.802;4.336;2023-07-24T11:03:23;3.70;;;2.70;;
14470;SDS011;7321;50.802;4.336;2023-07-24T11:06:17;4.00;;;2.80;;
14470;SDS011;7321;50.802;4.336;2023-07-24T11:08:53;3.08;;;2.78;;
14470;SDS011;7321;50.802;4.336;2023-07-24T11:11:30;3.55;;;3.17;;
14470;SDS011;7321;50.802;4.336;2023-07-24T11:14:00;3.05;;;2.85;;
14470;SDS011;7321;50.802;4.336;2023-07-24T11:16:29;2.97;;;2.75;;
14470;SDS011;7321;50.802;4.336;2023-07-24T11:18:56;4.40;;;4.00;;
14470;SDS011;7321;50.802;4.336;2023-07-24T11:21:22;3.70;;;3.40;;
14470;SDS011;7321;50.802;4.336;2023-07-24T11:23:50;3.72;;;3.35;;
14470;SDS011;7321;50.802;4.336;2023-07-24T11:26:19;3.40;;;3.10;;
14470;SDS011;7321;50.802;4.336;2023-07-24T11:28:53;5.88;;;3.28;;
14470;SDS011;7321;50.802;4.336;2023-07-24T11:31:23;3.78;;;3.30;;
14470;SDS011;7321;50.802;4.336;2023-07-24T11:34:01;3.75;;;3.45;;
14470;SDS011;7321;50.802;4.336;2023-07-24T11:36:27;4.28;;;3.88;;
14470;SDS011;7321;50.802;4.336;2023-07-24T11:38:53;3.67;;;3.38;;
14470;SDS011;7321;50.802;4.336;2023-07-24T11:41:19;4.47;;;3.10;;
14470;SDS011;7321;50.802;4.336;2023-07-24T11:43:49;7.22;;;5.03;;
14470;SDS011;7321;50.802;4.336;2023-07-24T11:46:25;4.57;;;3.90;;
14470;SDS011;7321;50.802;4.336;2023-07-24T11:48:58;5.40;;;3.70;;
14470;SDS011;7321;50.802;4.336;2023-07-24T11:51:26;3.50;;;3.20;;
14470;SDS011;7321;50.802;4.336;2023-07-24T11:54:07;3.47;;;3.20;;
14470;SDS011;7321;50.802;4.336;2023-07-24T11:56:34;4.05;;;3.33;;
14470;SDS011;7321;50.802;4.336;2023-07-24T11:59:08;3.85;;;3.15;;
14470;SDS011;7321;50.802;4.336;2023-07-24T12:01:38;3.55;;;3.22;;
14470;SDS011;7321;50.802;4.336;2023-07-24T12:04:17;3.80;;;3.30;;
14470;SDS011;7321;50.802;4.336;2023-07-24T12:06:44;4.65;;;2.95;;
14470;SDS011;7321;50.802;4.336;2023-07-24T12:09:18;3.40;;;3.20;;
14470;SDS011;7321;50.802;4.336;2023-07-24T12:11:51;3.92;;;3.40;;
14470;SDS011;7321;50.802;4.336;2023-07-24T12:14:17;4.05;;;3.10;;
14470;SDS011;7321;50.802;4.336;2023-07-24T12:16:53;3.97;;;3.17;;
14470;SDS011;7321;50.802;4.336;2023-07-24T12:19:41;3.70;;;3.38;;
14470;SDS011;7321;50.802;4.336;2023-07-24T12:22:15;3.58;;;3.22;;
14470;SDS011;7321;50.802;4.336;2023-07-24T12:24:43;3.88;;;3.58;;
14470;SDS011;7321;50.802;4.336;2023-07-24T12:27:19;3.63;;;3.33;;
14470;SDS011;7321;50.802;4.336;2023-07-24T12:29:45;4.03;;;3.63;;
14470;SDS011;7321;50.802;4.336;2023-07-24T12:32:13;3.80;;;3.28;;
14470;SDS011;7321;50.802;4.336;2023-07-24T12:34:39;3.90;;;3.55;;
14470;SDS011;7321;50.802;4.336;2023-07-24T12:37:25;6.10;;;3.10;;
14470;SDS011;7321;50.802;4.336;2023-07-24T12:39:54;4.60;;;3.78;;
14470;SDS011;7321;50.802;4.336;2023-07-24T12:42:23;4.30;;;3.83;;
14470;SDS011;7321;50.802;4.336;2023-07-24T12:44:49;4.07;;;3.40;;
14470;SDS011;7321;50.802;4.336;2023-07-24T12:47:15;4.80;;;3.35;;
14470;SDS011;7321;50.802;4.336;2023-07-24T12:49:41;4.32;;;3.35;;
14470;SDS011;7321;50.802;4.336;2023-07-24T12:52:07;3.45;;;3.15;;
14470;SDS011;7321;50.802;4.336;2023-07-24T12:54:35;5.10;;;3.45;;
14470;SDS011;7321;50.802;4.336;2023-07-24T12:57:01;3.47;;;3.13;;
14470;SDS011;7321;50.802;4.336;2023-07-24T12:59:30;4.15;;;3.40;;
14470;SDS011;7321;50.802;4.336;2023-07-24T13:01:56;5.35;;;3.63;;
14470;SDS011;7321;50.802;4.336;2023-07-24T13:04:22;4.00;;;3.47;;
14470;SDS011;7321;50.802;4.336;2023-07-24T13:06:49;4.15;;;3.65;;
14470;SDS011;7321;50.802;4.336;2023-07-24T13:09:15;4.05;;;3.30;;
14470;SDS011;7321;50.802;4.336;2023-07-24T13:11:41;3.97;;;3.58;;
14470;SDS011;7321;50.802;4.336;2023-07-24T13:14:07;6.07;;;3.65;;
14470;SDS011;7321;50.802;4.336;2023-07-24T13:16:33;5.15;;;3.20;;
14470;SDS011;7321;50.802;4.336;2023-07-24T13:18:59;6.95;;;3.80;;
14470;SDS011;7321;50.802;4.336;2023-07-24T13:21:25;4.95;;;4.10;;
14470;SDS011;7321;50.802;4.336;2023-07-24T13:23:51;4.40;;;3.63;;
14470;SDS011;7321;50.802;4.336;2023-07-24T13:26:17;5.90;;;4.10;;
14470;SDS011;7321;50.802;4.336;2023-07-24T13:28:42;4.20;;;3.80;;
14470;SDS011;7321;50.802;4.336;2023-07-24T13:31:16;4.47;;;3.88;;
14470;SDS011;7321;50.802;4.336;2023-07-24T13:33:45;4.43;;;3.50;;
14470;SDS011;7321;50.802;4.336;2023-07-24T13:36:11;4.97;;;3.88;;
14470;SDS011;7321;50.802;4.336;2023-07-24T13:38:37;3.63;;;3.30;;
14470;SDS011;7321;50.802;4.336;2023-07-24T13:41:05;4.85;;;3.28;;
14470;SDS011;7321;50.802;4.336;2023-07-24T13:43:33;3.50;;;3.20;;
14470;SDS011;7321;50.802;4.336;2023-07-24T13:45:59;4.35;;;3.25;;
14470;SDS011;7321;50.802;4.336;2023-07-24T13:48:27;3.90;;;3.38;;
14470;SDS011;7321;50.802;4.336;2023-07-24T13:50:53;3.35;;;3.05;;
14470;SDS011;7321;50.802;4.336;2023-07-24T13:53:19;3.60;;;3.10;;
14470;SDS011;7321;50.802;4.336;2023-07-24T13:55:45;3.90;;;3.20;;
14470;SDS011;7321;50.802;4.336;2023-07-24T13:58:11;4.03;;;3.22;;
14470;SDS011;7321;50.802;4.336;2023-07-24T14:00:37;3.42;;;3.13;;
14470;SDS011;7321;50.802;4.336;2023-07-24T14:03:03;3.45;;;3.10;;
14470;SDS011;7321;50.802;4.336;2023-07-24T14:05:29;3.95;;;3.28;;
14470;SDS011;7321;50.802;4.336;2023-07-24T14:07:55;3.58;;;2.88;;
14470;SDS011;7321;50.802;4.336;2023-07-24T14:10:21;3.80;;;3.00;;
14470;SDS011;7321;50.802;4.336;2023-07-24T14:12:46;4.43;;;3.97;;
14470;SDS011;7321;50.802;4.336;2023-07-24T14:15:12;3.63;;;3.30;;
14470;SDS011;7321;50.802;4.336;2023-07-24T14:17:38;3.53;;;3.22;;
14470;SDS011;7321;50.802;4.336;2023-07-24T14:20:05;3.20;;;2.90;;
14470;SDS011;7321;50.802;4.336;2023-07-24T14:22:31;3.13;;;2.92;;
14470;SDS011;7321;50.802;4.336;2023-07-24T14:24:57;3.47;;;3.13;;
14470;SDS011;7321;50.802;4.336;2023-07-24T14:27:23;3.72;;;3.40;;
14470;SDS011;7321;50.802;4.336;2023-07-24T14:29:49;3.30;;;3.00;;
14470;SDS011;7321;50.802;4.336;2023-07-24T14:32:15;4.00;;;3.42;;
14470;SDS011;7321;50.802;4.336;2023-07-24T14:34:41;3.83;;;3.35;;
14470;SDS011;7321;50.802;4.336;2023-07-24T14:37:07;4.22;;;3.80;;
14470;SDS011;7321;50.802;4.336;2023-07-24T14:39:33;4.90;;;3.50;;
14470;SDS011;7321;50.802;4.336;2023-07-24T14:41:59;3.75;;;3.35;;
14470;SDS011;7321;50.802;4.336;2023-07-24T14:44:25;3.85;;;3.30;;
14470;SDS011;7321;50.802;4.336;2023-07-24T14:46:51;3.00;;;2.70;;
14470;SDS011;7321;50.802;4.336;2023-07-24T14:49:17;3.28;;;2.47;;
14470;SDS011;7321;50.802;4.336;2023-07-24T14:51:51;4.43;;;2.90;;
14470;SDS011;7321;50.802;4.336;2023-07-24T14:54:17;3.80;;;2.90;;
14470;SDS011;7321;50.802;4.336;2023-07-24T14:56:43;4.93;;;2.70;;
14470;SDS011;7321;50.802;4.336;2023-07-24T14:59:09;2.53;;;2.33;;
14470;SDS011;7321;50.802;4.336;2023-07-24T15:01:45;3.63;;;2.55;;
14470;SDS011;7321;50.802;4.336;2023-07-24T15:04:20;3.50;;;3.20;;
14470;SDS011;7321;50.802;4.336;2023-07-24T15:06:46;2.92;;;2.67;;
14470;SDS011;7321;50.802;4.336;2023-07-24T15:09:18;3.78;;;3.22;;
14470;SDS011;7321;50.802;4.336;2023-07-24T15:11:44;4.38;;;3.10;;